Graniteville, California
Current Conditions -  °F | °C
As of 5:52 AM on Friday 19 Dec 2014 (Local Time) from KBLU Reporting Station
Light Rain Light Rain  
Wind Chill: 29°   Ceiling: 2100
Heat Index: 37°   Visibility: 9mi
Dew Point: 28°   Wind: 13mph
Humidity: 70%   Direction: 160°SSE
Pressure: 30.14"   Gusts: 22mph
Location:  39.3517°N, 120.851°W
Report Text: KBLU 191352Z AUTO 16011G19KT 9SM -RA OVC021 03/M02 A3014 RMK AO2 RAE04B44UPB01E02B45E51SNB1259E01B04E14 SLP201 P0000 T00281022
Loading
Personal Weather Stations






























Interactive Weather Map New forecast layout! Learn more

10-Day Weather Forecast

Advertisements
Track Severe Weather on mobile